createdAt,value
2023-02-12T00:00:56.316Z,0
2023-02-12T00:03:02.403Z,0
2023-02-12T00:05:09.191Z,0
2023-02-12T00:06:17.241Z,0
2023-02-12T00:08:22.950Z,0
2023-02-12T00:10:29.878Z,0
2023-02-12T00:12:36.116Z,0
2023-02-12T00:13:39.568Z,0
2023-02-12T00:15:46.780Z,0
2023-02-12T00:17:53.186Z,0
2023-02-12T00:19:59.980Z,0
2023-02-12T00:21:03.734Z,0
2023-02-12T00:23:10.112Z,0
2023-02-12T00:25:16.063Z,0
2023-02-12T00:27:22.189Z,0
2023-02-12T00:28:25.716Z,0
2023-02-12T00:30:32.189Z,0
2023-02-12T00:32:39.059Z,0
2023-02-12T00:34:45.022Z,0
2023-02-12T00:35:48.371Z,0
2023-02-12T00:37:55.186Z,0
2023-02-12T00:40:01.362Z,0
2023-02-12T00:42:08.274Z,0
2023-02-12T00:43:11.485Z,0
2023-02-12T00:45:18.331Z,0
2023-02-12T00:47:25.602Z,0
2023-02-12T00:49:32.774Z,0
2023-02-12T00:50:36.156Z,0
2023-02-12T00:52:42.797Z,0
2023-02-12T00:54:49.182Z,0
2023-02-12T00:56:55.545Z,0
2023-02-12T00:57:58.921Z,0
2023-02-12T01:00:05.250Z,0
2023-02-12T01:02:12.130Z,0
2023-02-12T01:04:18.662Z,0
2023-02-12T01:05:21.860Z,0
2023-02-12T01:06:25.023Z,0
2023-02-12T01:07:28.169Z,0
2023-02-12T01:09:34.363Z,0
2023-02-12T01:10:38.122Z,0
2023-02-12T01:11:41.143Z,0
2023-02-12T01:12:44.358Z,0
2023-02-12T01:14:51.486Z,0
2023-02-12T01:15:57.218Z,0
2023-02-12T01:18:03.276Z,0
2023-02-12T01:20:08.968Z,0
2023-02-12T01:21:11.838Z,0
2023-02-12T01:22:15.220Z,0
2023-02-12T01:23:17.680Z,0
2023-02-12T01:25:24.215Z,0
2023-02-12T01:27:31.525Z,0
2023-02-12T01:28:34.610Z,0
2023-02-12T01:30:40.791Z,0
2023-02-12T01:32:48.311Z,0
2023-02-12T01:34:54.563Z,0
2023-02-12T01:35:58.947Z,0
2023-02-12T01:38:05.164Z,0
2023-02-12T01:40:12.053Z,0
2023-02-12T01:41:15.431Z,0
2023-02-12T01:43:21.823Z,0
2023-02-12T01:45:28.020Z,0
2023-02-12T01:46:32.283Z,0
2023-02-12T01:48:38.796Z,0
2023-02-12T01:50:45.004Z,0
2023-02-12T01:51:48.430Z,0
2023-02-12T01:53:55.811Z,0
2023-02-12T01:56:03.136Z,0
2023-02-12T01:57:06.308Z,0
2023-02-12T01:58:09.995Z,0
2023-02-12T01:59:12.495Z,0
2023-02-12T02:01:19.630Z,0
2023-02-12T02:02:23.073Z,0
2023-02-12T02:03:26.642Z,0
2023-02-12T02:04:29.719Z,0
2023-02-12T02:06:35.032Z,0
2023-02-12T02:07:38.379Z,0
2023-02-12T02:08:41.742Z,0
2023-02-12T02:09:44.800Z,0
2023-02-12T02:11:51.657Z,0
2023-02-12T02:12:53.899Z,0
2023-02-12T02:13:57.056Z,0
2023-02-12T02:15:00.880Z,0
2023-02-12T02:17:08.309Z,0
2023-02-12T02:18:12.382Z,0
2023-02-12T02:20:18.506Z,0
2023-02-12T02:22:24.324Z,0
2023-02-12T02:23:27.631Z,0
2023-02-12T02:25:34.164Z,0
2023-02-12T02:27:40.927Z,0
2023-02-12T02:28:43.921Z,0
2023-02-12T02:30:50.944Z,0
2023-02-12T02:31:54.569Z,0
2023-02-12T02:34:01.580Z,0
2023-02-12T02:36:08.034Z,0
2023-02-12T02:37:11.024Z,0
2023-02-12T02:39:16.664Z,0
2023-02-12T02:41:22.534Z,0
2023-02-12T02:42:26.006Z,0
2023-02-12T02:44:31.878Z,0
2023-02-12T02:45:34.396Z,0
2023-02-12T02:47:41.006Z,0
2023-02-12T02:49:47.512Z,0
2023-02-12T02:50:50.917Z,0
2023-02-12T02:51:54.141Z,0
2023-02-12T02:52:57.502Z,0
2023-02-12T02:55:03.824Z,0
2023-02-12T02:57:10.604Z,0
2023-02-12T02:58:13.725Z,0
2023-02-12T03:00:19.798Z,0
2023-02-12T03:01:22.903Z,0
2023-02-12T03:03:29.313Z,0
2023-02-12T03:05:36.272Z,0
2023-02-12T03:06:39.366Z,0
2023-02-12T03:08:45.465Z,0
2023-02-12T03:10:52.646Z,0
2023-02-12T03:11:55.334Z,0
2023-02-12T03:14:01.779Z,0
2023-02-12T03:16:08.582Z,0
2023-02-12T03:17:12.303Z,0
2023-02-12T03:19:18.712Z,0
2023-02-12T03:20:22.723Z,0
2023-02-12T03:22:28.836Z,0
2023-02-12T03:24:35.695Z,0
2023-02-12T03:25:39.402Z,0
2023-02-12T03:26:43.111Z,0
2023-02-12T03:27:45.906Z,0
2023-02-12T03:29:52.186Z,0
2023-02-12T03:30:55.730Z,0
2023-02-12T03:33:03.340Z,0
2023-02-12T03:34:06.185Z,0
2023-02-12T03:35:09.015Z,0
2023-02-12T03:36:12.657Z,0
2023-02-12T03:38:19.476Z,0
2023-02-12T03:39:22.967Z,0
2023-02-12T03:41:30.397Z,0
2023-02-12T03:42:33.650Z,0
2023-02-12T03:44:40.192Z,0
2023-02-12T03:46:47.780Z,0
2023-02-12T03:47:51.614Z,0
2023-02-12T03:49:57.794Z,0
2023-02-12T03:52:04.804Z,0
2023-02-12T03:53:08.600Z,0
2023-02-12T03:55:14.189Z,0
2023-02-12T03:56:17.531Z,0
2023-02-12T03:58:24.390Z,0
2023-02-12T04:00:30.472Z,0
2023-02-12T04:02:37.972Z,0
2023-02-12T04:03:41.376Z,0
2023-02-12T04:05:48.006Z,0
2023-02-12T04:07:55.104Z,0
2023-02-12T04:10:00.649Z,0
2023-02-12T04:11:03.778Z,0
2023-02-12T04:13:10.990Z,0
2023-02-12T04:15:18.030Z,0
2023-02-12T04:16:22.458Z,0
2023-02-12T04:18:30.312Z,0
2023-02-12T04:19:33.585Z,0
2023-02-12T04:20:36.875Z,0
2023-02-12T04:21:39.398Z,0
2023-02-12T04:23:46.323Z,0
2023-02-12T04:24:49.515Z,0
2023-02-12T04:25:52.536Z,0
2023-02-12T04:26:55.838Z,0
2023-02-12T04:29:03.226Z,0
2023-02-12T04:30:06.284Z,0
2023-02-12T04:32:13.057Z,0
2023-02-12T04:34:19.379Z,0
2023-02-12T04:35:22.775Z,0
2023-02-12T04:37:29.528Z,0
2023-02-12T04:39:36.302Z,0
2023-02-12T04:40:40.090Z,0
2023-02-12T04:42:46.866Z,0
2023-02-12T04:44:52.966Z,0
2023-02-12T04:47:01.633Z,0
2023-02-12T04:48:03.906Z,0
2023-02-12T04:50:11.005Z,0
2023-02-12T04:52:16.602Z,0
2023-02-12T04:54:22.975Z,0
2023-02-12T04:55:26.320Z,0
2023-02-12T04:57:32.313Z,0
2023-02-12T04:59:39.139Z,0
2023-02-12T05:01:46.353Z,0
2023-02-12T05:02:49.739Z,0
2023-02-12T05:04:55.979Z,0
2023-02-12T05:07:03.704Z,0
2023-02-12T05:09:09.967Z,0
2023-02-12T05:10:13.378Z,0
2023-02-12T05:12:20.530Z,0
2023-02-12T05:14:27.266Z,0
2023-02-12T05:16:32.830Z,0
2023-02-12T05:17:36.271Z,0
2023-02-12T05:19:41.624Z,0
2023-02-12T05:21:48.344Z,0
2023-02-12T05:23:54.837Z,0
2023-02-12T05:24:57.920Z,0
2023-02-12T05:27:05.061Z,0
2023-02-12T05:29:11.367Z,0
2023-02-12T05:31:22.547Z,0
2023-02-12T05:32:25.706Z,0
2023-02-12T05:33:28.966Z,0
2023-02-12T05:34:32.386Z,0
2023-02-12T05:36:38.098Z,0
2023-02-12T05:37:41.376Z,0
2023-02-12T05:38:44.803Z,0
2023-02-12T05:39:47.784Z,0
2023-02-12T05:41:53.897Z,0
2023-02-12T05:42:57.622Z,0
2023-02-12T05:44:00.522Z,0
2023-02-12T05:45:03.431Z,0
2023-02-12T05:47:10.233Z,0
2023-02-12T05:49:16.442Z,0
2023-02-12T05:50:19.614Z,0
2023-02-12T05:52:26.612Z,0
2023-02-12T05:54:32.489Z,0
2023-02-12T05:56:38.758Z,0
2023-02-12T05:57:42.612Z,0
2023-02-12T05:59:49.398Z,0
2023-02-12T06:01:55.242Z,0
2023-02-12T06:04:02.651Z,0
2023-02-12T06:05:06.047Z,0
2023-02-12T06:07:12.188Z,0
2023-02-12T06:09:20.080Z,0
2023-02-12T06:11:26.531Z,0
2023-02-12T06:12:29.531Z,0
2023-02-12T06:14:35.830Z,0
2023-02-12T06:16:42.515Z,0
2023-02-12T06:18:48.735Z,0
2023-02-12T06:19:52.445Z,0
2023-02-12T06:21:57.951Z,0
2023-02-12T06:24:03.641Z,0
2023-02-12T06:26:11.447Z,0
2023-02-12T06:27:14.591Z,0
2023-02-12T06:28:17.983Z,0
2023-02-12T06:29:21.776Z,0
2023-02-12T06:31:29.720Z,0
2023-02-12T06:32:32.905Z,0
2023-02-12T06:33:36.049Z,0
2023-02-12T06:34:39.415Z,0
2023-02-12T06:36:44.980Z,1
2023-02-12T06:37:47.681Z,1
2023-02-12T06:38:51.432Z,1
2023-02-12T06:39:53.698Z,1
2023-02-12T06:42:00.241Z,2
2023-02-12T06:43:02.798Z,2
2023-02-12T06:44:05.971Z,2
2023-02-12T06:45:09.724Z,3
2023-02-12T06:47:16.808Z,3
2023-02-12T06:49:22.791Z,3
2023-02-12T06:50:26.429Z,3
2023-02-12T06:52:32.577Z,3
2023-02-12T06:54:38.284Z,4
2023-02-12T06:56:44.671Z,4
2023-02-12T06:57:47.768Z,5
2023-02-12T06:59:54.381Z,7
2023-02-12T07:02:01.702Z,7
2023-02-12T07:04:08.482Z,9
2023-02-12T07:05:11.579Z,11
2023-02-12T07:07:17.718Z,12
2023-02-12T07:09:23.550Z,11
2023-02-12T07:11:29.749Z,11
2023-02-12T07:12:33.485Z,11
2023-02-12T07:14:39.799Z,9
2023-02-12T07:16:46.627Z,10
2023-02-12T07:18:53.304Z,9
2023-02-12T07:19:56.645Z,10
2023-02-12T07:22:02.562Z,14
2023-02-12T07:24:08.488Z,9
2023-02-12T07:26:14.678Z,10
2023-02-12T07:27:18.126Z,10
2023-02-12T07:29:24.492Z,14
2023-02-12T07:31:32.489Z,14
2023-02-12T07:33:39.639Z,20
2023-02-12T07:34:43.090Z,22
2023-02-12T07:36:50.273Z,22
2023-02-12T07:38:56.731Z,31
2023-02-12T07:41:02.552Z,38
2023-02-12T07:42:05.598Z,36
2023-02-12T07:44:12.540Z,25
2023-02-12T07:46:19.717Z,28
2023-02-12T07:48:26.559Z,22
2023-02-12T07:49:30.046Z,27
2023-02-12T07:50:39.455Z,33
2023-02-12T07:51:43.204Z,27
2023-02-12T07:53:49.404Z,34
2023-02-12T07:55:58.321Z,41
2023-02-12T07:58:04.612Z,35
2023-02-12T07:59:07.461Z,32
2023-02-12T08:01:13.738Z,41
2023-02-12T08:03:19.575Z,42
2023-02-12T08:05:26.421Z,28
2023-02-12T08:06:29.588Z,32
2023-02-12T08:08:35.371Z,44
2023-02-12T08:10:41.685Z,32
2023-02-12T08:11:45.469Z,30
2023-02-12T08:12:48.256Z,34
2023-02-12T08:13:51.520Z,35
2023-02-12T08:15:59.457Z,46
2023-02-12T08:17:02.471Z,45
2023-02-12T08:18:05.520Z,36
2023-02-12T08:19:27.745Z,33
2023-02-12T08:20:30.776Z,32
2023-02-12T08:21:33.529Z,27
2023-02-12T08:23:40.294Z,32
2023-02-12T08:24:43.648Z,33
2023-02-12T08:25:46.360Z,37
2023-02-12T08:26:49.871Z,40
2023-02-12T08:28:56.393Z,33
2023-02-12T08:29:58.946Z,38
2023-02-12T08:31:03.479Z,44
2023-02-12T08:32:07.314Z,37
2023-02-12T08:34:13.734Z,42
2023-02-12T08:36:19.072Z,42
2023-02-12T08:37:22.130Z,47
2023-02-12T08:39:29.102Z,39
2023-02-12T08:41:35.767Z,56
2023-02-12T08:43:41.635Z,47
2023-02-12T08:44:44.707Z,49
2023-02-12T08:46:51.951Z,49
2023-02-12T08:48:57.237Z,52
2023-02-12T08:51:03.932Z,68
2023-02-12T08:52:07.301Z,90
2023-02-12T08:54:14.173Z,160
2023-02-12T08:56:20.631Z,147
2023-02-12T08:58:27.101Z,112
2023-02-12T08:59:30.491Z,97
2023-02-12T09:01:37.366Z,92
2023-02-12T09:03:44.460Z,94
2023-02-12T09:05:49.871Z,88
2023-02-12T09:06:53.560Z,88
2023-02-12T09:08:59.943Z,111
2023-02-12T09:11:06.164Z,94
2023-02-12T09:13:12.570Z,130
2023-02-12T09:14:15.417Z,162
2023-02-12T09:16:21.807Z,154
2023-02-12T09:18:28.870Z,246
2023-02-12T09:20:36.239Z,205
2023-02-12T09:21:39.646Z,149
2023-02-12T09:23:46.745Z,148
2023-02-12T09:25:52.972Z,249
2023-02-12T09:28:00.171Z,265
2023-02-12T09:29:02.700Z,178
2023-02-12T09:31:09.891Z,206
2023-02-12T09:33:16.649Z,193
2023-02-12T09:35:22.501Z,233
2023-02-12T09:36:25.516Z,195
2023-02-12T09:38:32.217Z,173
2023-02-12T09:40:38.635Z,215
2023-02-12T09:41:41.370Z,363
2023-02-12T09:42:44.390Z,587
2023-02-12T09:43:48.694Z,477
2023-02-12T09:45:57.939Z,214
2023-02-12T09:47:01.483Z,442
2023-02-12T09:49:08.388Z,423
2023-02-12T09:50:11.837Z,234
2023-02-12T09:52:19.362Z,159
2023-02-12T09:54:26.584Z,136
2023-02-12T09:56:33.155Z,142
2023-02-12T09:57:36.379Z,141
2023-02-12T09:59:42.866Z,151
2023-02-12T10:01:49.479Z,180
2023-02-12T10:02:52.955Z,781
2023-02-12T10:03:56.609Z,770
2023-02-12T10:05:05.267Z,342
2023-02-12T10:06:08.756Z,847
2023-02-12T10:07:11.929Z,817
2023-02-12T10:08:15.383Z,786
2023-02-12T10:10:21.775Z,592
2023-02-12T10:11:25.137Z,295
2023-02-12T10:13:32.152Z,137
2023-02-12T10:15:39.163Z,232
2023-02-12T10:16:42.805Z,252
2023-02-12T10:18:49.739Z,358
2023-02-12T10:20:58.692Z,400
2023-02-12T10:22:02.388Z,492
2023-02-12T10:24:08.997Z,425
2023-02-12T10:25:11.912Z,369
2023-02-12T10:27:19.210Z,364
2023-02-12T10:29:26.167Z,213
2023-02-12T10:31:33.901Z,232
2023-02-12T10:32:37.420Z,259
2023-02-12T10:34:44.771Z,300
2023-02-12T10:36:51.437Z,207
2023-02-12T10:37:55.440Z,217
2023-02-12T10:40:02.583Z,207
2023-02-12T10:42:08.935Z,239
2023-02-12T10:43:12.470Z,261
2023-02-12T10:44:15.872Z,277
2023-02-12T10:45:19.636Z,309
2023-02-12T10:47:26.379Z,421
2023-02-12T10:48:31.004Z,325
2023-02-12T10:50:36.997Z,236
2023-02-12T10:52:42.861Z,248
2023-02-12T10:54:49.422Z,188
2023-02-12T10:55:53.235Z,156
2023-02-12T10:57:59.532Z,230
2023-02-12T11:00:05.782Z,237
2023-02-12T11:01:08.839Z,375
2023-02-12T11:03:16.257Z,223
2023-02-12T11:05:22.352Z,234
2023-02-12T11:06:25.394Z,187
2023-02-12T11:07:28.333Z,181
2023-02-12T11:08:31.366Z,205
2023-02-12T11:10:37.512Z,230
2023-02-12T11:11:40.306Z,243
2023-02-12T11:13:46.128Z,311
2023-02-12T11:15:53.937Z,291
2023-02-12T11:18:01.082Z,214
2023-02-12T11:19:05.063Z,206
2023-02-12T11:21:12.536Z,238
2023-02-12T11:23:19.403Z,243
2023-02-12T11:24:23.101Z,212
2023-02-12T11:26:30.009Z,219
2023-02-12T11:28:37.006Z,216
2023-02-12T11:29:40.157Z,185
2023-02-12T11:31:47.597Z,182
2023-02-12T11:33:54.852Z,265
2023-02-12T11:34:58.807Z,331
2023-02-12T11:36:09.141Z,324
2023-02-12T11:37:12.803Z,312
2023-02-12T11:39:19.939Z,200
2023-02-12T11:40:23.312Z,194
2023-02-12T11:41:26.463Z,200
2023-02-12T11:42:29.760Z,208
2023-02-12T11:44:35.951Z,222
2023-02-12T11:45:39.106Z,204
2023-02-12T11:47:45.871Z,175
2023-02-12T11:49:52.367Z,166
2023-02-12T11:50:55.397Z,160
2023-02-12T11:53:01.286Z,159
2023-02-12T11:55:07.570Z,185
2023-02-12T11:56:10.983Z,204
2023-02-12T11:57:14.626Z,227
2023-02-12T11:58:18.386Z,256
2023-02-12T11:59:21.808Z,272
2023-02-12T12:01:28.361Z,271
2023-02-12T12:03:35.813Z,247
2023-02-12T12:04:38.932Z,269
2023-02-12T12:05:41.826Z,332
2023-02-12T12:06:44.962Z,300
2023-02-12T12:08:51.746Z,252
2023-02-12T12:09:55.384Z,239
2023-02-12T12:12:01.630Z,204
2023-02-12T12:13:05.005Z,182
2023-02-12T12:15:11.299Z,173
2023-02-12T12:17:19.112Z,150
2023-02-12T12:19:29.378Z,145
2023-02-12T12:20:32.495Z,159
2023-02-12T12:22:39.438Z,180
2023-02-12T12:24:46.763Z,255
2023-02-12T12:25:50.191Z,327
2023-02-12T12:27:56.439Z,235
2023-02-12T12:30:02.680Z,134
2023-02-12T12:31:06.361Z,118
2023-02-12T12:33:11.958Z,88
2023-02-12T12:34:15.259Z,78
2023-02-12T12:35:18.440Z,72
2023-02-12T12:36:22.103Z,75
2023-02-12T12:37:25.576Z,74
2023-02-12T12:39:31.383Z,63
2023-02-12T12:41:37.862Z,66
2023-02-12T12:42:41.267Z,54
2023-02-12T12:44:48.004Z,51
2023-02-12T12:45:51.590Z,52
2023-02-12T12:47:58.785Z,42
2023-02-12T12:50:06.642Z,36
2023-02-12T12:51:10.043Z,34
2023-02-12T12:53:17.114Z,33
2023-02-12T12:55:23.514Z,42
2023-02-12T12:56:27.209Z,49
2023-02-12T12:58:33.345Z,53
2023-02-12T12:59:36.750Z,51
2023-02-12T13:00:40.143Z,50
2023-02-12T13:01:43.180Z,47
2023-02-12T13:02:47.055Z,43
2023-02-12T13:04:54.016Z,45
2023-02-12T13:07:02.585Z,40
2023-02-12T13:08:05.885Z,36
2023-02-12T13:10:12.431Z,45
2023-02-12T13:12:18.398Z,41
2023-02-12T13:13:21.502Z,37
2023-02-12T13:15:28.355Z,37
2023-02-12T13:17:34.698Z,45
2023-02-12T13:18:38.148Z,48
2023-02-12T13:20:43.546Z,50
2023-02-12T13:22:50.480Z,49
2023-02-12T13:23:53.821Z,48
2023-02-12T13:26:00.745Z,46
2023-02-12T13:28:07.237Z,56
2023-02-12T13:29:10.659Z,57
2023-02-12T13:31:36.661Z,68
2023-02-12T13:33:43.642Z,58
2023-02-12T13:35:50.460Z,57
2023-02-12T13:36:54.107Z,59
2023-02-12T13:38:59.966Z,61
2023-02-12T13:41:06.829Z,60
2023-02-12T13:42:09.686Z,55
2023-02-12T13:44:16.214Z,68
2023-02-12T13:46:22.539Z,66
2023-02-12T13:47:25.956Z,60
2023-02-12T13:49:32.986Z,47
2023-02-12T13:51:39.702Z,36
2023-02-12T13:52:43.730Z,33
2023-02-12T13:54:50.851Z,33
2023-02-12T13:55:55.249Z,33
2023-02-12T13:58:02.388Z,31
2023-02-12T14:00:09.176Z,29
2023-02-12T14:01:12.540Z,31
2023-02-12T14:02:16.162Z,35
2023-02-12T14:03:19.959Z,44
2023-02-12T14:05:26.838Z,53
2023-02-12T14:06:29.738Z,60
2023-02-12T14:08:36.310Z,58
2023-02-12T14:10:43.287Z,48
2023-02-12T14:11:46.949Z,46
2023-02-12T14:13:53.680Z,52
2023-02-12T14:16:02.345Z,52
2023-02-12T14:17:05.084Z,47
2023-02-12T14:19:12.199Z,34
2023-02-12T14:20:15.962Z,30
2023-02-12T14:22:22.493Z,24
2023-02-12T14:23:26.190Z,28
2023-02-12T14:24:29.920Z,30
2023-02-12T14:25:33.607Z,34
2023-02-12T14:27:39.878Z,41
2023-02-12T14:28:42.757Z,40
2023-02-12T14:30:49.164Z,36
2023-02-12T14:32:56.859Z,31
2023-02-12T14:35:03.003Z,25
2023-02-12T14:36:06.170Z,25
2023-02-12T14:38:12.990Z,23
2023-02-12T14:39:16.467Z,24
2023-02-12T14:40:20.193Z,21
2023-02-12T14:41:23.259Z,23
2023-02-12T14:43:30.675Z,29
2023-02-12T14:44:34.323Z,28
2023-02-12T14:45:37.532Z,29
2023-02-12T14:46:40.852Z,32
2023-02-12T14:48:47.729Z,44
2023-02-12T14:49:51.402Z,35
2023-02-12T14:51:57.333Z,31
2023-02-12T14:54:03.833Z,25
2023-02-12T14:55:07.166Z,22
2023-02-12T14:57:13.770Z,25
2023-02-12T14:59:20.731Z,39
2023-02-12T15:00:24.732Z,41
2023-02-12T15:01:27.853Z,44
2023-02-12T15:02:31.539Z,42
2023-02-12T15:04:39.423Z,28
2023-02-12T15:05:43.245Z,29
2023-02-12T15:07:50.621Z,31
2023-02-12T15:09:56.733Z,30
2023-02-12T15:11:00.039Z,32
2023-02-12T15:13:07.362Z,26
2023-02-12T15:14:11.103Z,25
2023-02-12T15:15:14.476Z,24
2023-02-12T15:16:19.653Z,21
2023-02-12T15:18:27.660Z,14
2023-02-12T15:19:31.320Z,16
2023-02-12T15:21:37.740Z,20
2023-02-12T15:22:41.022Z,19
2023-02-12T15:23:44.282Z,19
2023-02-12T15:24:48.013Z,20
2023-02-12T15:26:53.937Z,16
2023-02-12T15:27:57.145Z,15
2023-02-12T15:29:00.174Z,18
2023-02-12T15:30:03.957Z,15
2023-02-12T15:32:10.689Z,12
2023-02-12T15:33:16.805Z,11
2023-02-12T15:35:23.307Z,11
2023-02-12T15:37:30.105Z,12
2023-02-12T15:38:33.407Z,11
2023-02-12T15:39:36.785Z,11
2023-02-12T15:40:40.144Z,14
2023-02-12T15:42:48.238Z,15
2023-02-12T15:43:51.300Z,13
2023-02-12T15:45:59.681Z,11
2023-02-12T15:47:02.732Z,10
2023-02-12T15:48:05.794Z,6
2023-02-12T15:49:08.806Z,4
2023-02-12T15:51:14.752Z,3
2023-02-12T15:52:17.540Z,2
2023-02-12T15:54:24.299Z,2
2023-02-12T15:56:31.050Z,2
2023-02-12T15:57:35.084Z,3
2023-02-12T15:58:38.914Z,6
2023-02-12T15:59:42.931Z,8
2023-02-12T16:01:49.700Z,7
2023-02-12T16:02:53.136Z,7
2023-02-12T16:05:00.006Z,5
2023-02-12T16:07:06.182Z,4
2023-02-12T16:08:09.887Z,3
2023-02-12T16:10:16.681Z,2
2023-02-12T16:12:23.270Z,2
2023-02-12T16:13:26.325Z,2
2023-02-12T16:15:33.646Z,1
2023-02-12T16:17:40.315Z,1
2023-02-12T16:19:47.243Z,1
2023-02-12T16:20:50.647Z,0
2023-02-12T16:22:57.446Z,0
2023-02-12T16:25:04.011Z,0
2023-02-12T16:26:07.259Z,0
2023-02-12T16:28:13.812Z,0
2023-02-12T16:30:20.740Z,0
2023-02-12T16:32:28.188Z,0
2023-02-12T16:33:31.846Z,0
2023-02-12T16:35:38.403Z,0
2023-02-12T16:37:44.418Z,0
2023-02-12T16:39:51.141Z,0
2023-02-12T16:40:54.617Z,0
2023-02-12T16:43:01.428Z,0
2023-02-12T16:45:08.007Z,0
2023-02-12T16:46:11.402Z,0
2023-02-12T16:47:14.828Z,0
2023-02-12T16:48:18.326Z,0
2023-02-12T16:50:23.882Z,0
2023-02-12T16:51:26.732Z,0
2023-02-12T16:53:33.033Z,0
2023-02-12T16:55:39.648Z,0
2023-02-12T16:57:46.722Z,0
2023-02-12T16:58:50.927Z,0
2023-02-12T17:00:58.030Z,0
2023-02-12T17:03:04.774Z,0
2023-02-12T17:05:10.527Z,0
2023-02-12T17:06:14.123Z,0
2023-02-12T17:08:20.263Z,0
2023-02-12T17:10:26.685Z,0
2023-02-12T17:12:32.679Z,0
2023-02-12T17:13:36.307Z,0
2023-02-12T17:15:43.285Z,0
2023-02-12T17:17:50.899Z,0
2023-02-12T17:18:54.981Z,0
2023-02-12T17:19:58.931Z,0
2023-02-12T17:21:01.695Z,0
2023-02-12T17:23:08.363Z,0
2023-02-12T17:24:11.166Z,0
2023-02-12T17:26:18.330Z,0
2023-02-12T17:28:25.422Z,0
2023-02-12T17:30:31.458Z,0
2023-02-12T17:31:35.370Z,0
2023-02-12T17:33:41.695Z,0
2023-02-12T17:34:51.189Z,0
2023-02-12T17:35:54.889Z,0
2023-02-12T17:38:01.765Z,0
2023-02-12T17:39:05.413Z,0
2023-02-12T17:40:08.790Z,0
2023-02-12T17:41:11.868Z,0
2023-02-12T17:43:18.488Z,0
2023-02-12T17:44:21.548Z,0
2023-02-12T17:45:24.360Z,0
2023-02-12T17:46:28.154Z,0
2023-02-12T17:48:33.841Z,0
2023-02-12T17:49:37.375Z,0
2023-02-12T17:50:40.760Z,0
2023-02-12T17:51:44.479Z,0
2023-02-12T17:53:51.034Z,0
2023-02-12T17:55:56.903Z,0
2023-02-12T17:56:59.984Z,0
2023-02-12T17:59:06.793Z,0
2023-02-12T18:01:11.637Z,0
2023-02-12T18:03:18.206Z,0
2023-02-12T18:04:21.622Z,0
2023-02-12T18:06:28.575Z,0
2023-02-12T18:08:34.465Z,0
2023-02-12T18:10:41.504Z,0
2023-02-12T18:11:44.601Z,0
2023-02-12T18:13:50.107Z,0
2023-02-12T18:15:56.526Z,0
2023-02-12T18:18:03.309Z,0
2023-02-12T18:19:06.803Z,0
2023-02-12T18:21:13.046Z,0
2023-02-12T18:23:19.907Z,0
2023-02-12T18:25:26.052Z,0
2023-02-12T18:26:29.769Z,0
2023-02-12T18:28:36.737Z,0
2023-02-12T18:30:43.848Z,0
2023-02-12T18:32:51.040Z,0
2023-02-12T18:33:54.416Z,0
2023-02-12T18:36:01.915Z,0
2023-02-12T18:38:09.108Z,0
2023-02-12T18:40:16.156Z,0
2023-02-12T18:41:19.533Z,0
2023-02-12T18:42:21.951Z,0
2023-02-12T18:43:26.304Z,0
2023-02-12T18:45:32.861Z,0
2023-02-12T18:46:35.692Z,0
2023-02-12T18:47:39.362Z,0
2023-02-12T18:48:43.128Z,0
2023-02-12T18:50:50.229Z,0
2023-02-12T18:51:52.669Z,0
2023-02-12T18:52:55.487Z,0
2023-02-12T18:53:58.557Z,0
2023-02-12T18:56:05.074Z,0
2023-02-12T18:57:08.840Z,0
2023-02-12T18:58:11.911Z,0
2023-02-12T18:59:14.927Z,0
2023-02-12T19:01:21.520Z,0
2023-02-12T19:03:27.728Z,0
2023-02-12T19:04:32.117Z,0
2023-02-12T19:06:38.652Z,0
2023-02-12T19:08:45.204Z,0
2023-02-12T19:10:51.989Z,0
2023-02-12T19:11:56.051Z,0
2023-02-12T19:14:02.248Z,0
2023-02-12T19:16:09.902Z,0
2023-02-12T19:18:16.787Z,0
2023-02-12T19:19:21.182Z,0
2023-02-12T19:21:28.211Z,0
2023-02-12T19:23:33.961Z,0
2023-02-12T19:24:49.261Z,0
2023-02-12T19:25:52.972Z,0
2023-02-12T19:28:00.538Z,0
2023-02-12T19:29:03.605Z,0
2023-02-12T19:31:10.706Z,0
2023-02-12T19:33:17.806Z,0
2023-02-12T19:35:24.173Z,0
2023-02-12T19:36:27.226Z,0
2023-02-12T19:38:34.152Z,0
2023-02-12T19:40:40.234Z,0
2023-02-12T19:42:47.696Z,0
2023-02-12T19:43:51.103Z,0
2023-02-12T19:45:57.645Z,0
2023-02-12T19:48:04.965Z,0
2023-02-12T19:49:08.077Z,0
2023-02-12T19:51:14.656Z,0
2023-02-12T19:53:21.931Z,0
2023-02-12T19:55:28.774Z,0
2023-02-12T19:56:32.523Z,0
2023-02-12T19:58:39.025Z,0
2023-02-12T20:00:45.737Z,0
2023-02-12T20:02:54.546Z,0
2023-02-12T20:03:57.356Z,0
2023-02-12T20:05:00.425Z,0
2023-02-12T20:06:03.802Z,0
2023-02-12T20:08:09.697Z,0
2023-02-12T20:09:13.373Z,0
2023-02-12T20:10:19.672Z,0
2023-02-12T20:11:22.507Z,0
2023-02-12T20:13:28.702Z,0
2023-02-12T20:14:32.381Z,0
2023-02-12T20:15:36.101Z,0
2023-02-12T20:16:40.456Z,0
2023-02-12T20:18:47.151Z,0
2023-02-12T20:20:55.759Z,0
2023-02-12T20:21:59.241Z,0
2023-02-12T20:24:06.082Z,0
2023-02-12T20:26:12.340Z,0
2023-02-12T20:28:19.529Z,0
2023-02-12T20:29:22.647Z,0
2023-02-12T20:31:29.245Z,0
2023-02-12T20:33:36.044Z,0
2023-02-12T20:34:53.228Z,0
2023-02-12T20:35:56.233Z,0
2023-02-12T20:38:02.339Z,0
2023-02-12T20:39:05.691Z,0
2023-02-12T20:41:12.883Z,0
2023-02-12T20:43:20.020Z,0
2023-02-12T20:45:26.933Z,0
2023-02-12T20:46:30.413Z,0
2023-02-12T20:48:37.162Z,0
2023-02-12T20:50:45.396Z,0
2023-02-12T20:51:48.477Z,0
2023-02-12T20:52:51.761Z,0
2023-02-12T20:53:55.348Z,0
2023-02-12T20:56:02.869Z,0
2023-02-12T20:58:10.789Z,0
2023-02-12T20:59:13.870Z,0
2023-02-12T21:01:20.761Z,0
2023-02-12T21:03:27.443Z,0
2023-02-12T21:05:37.551Z,0
2023-02-12T21:06:40.685Z,0
2023-02-12T21:08:46.860Z,0
2023-02-12T21:10:53.106Z,0
2023-02-12T21:12:59.300Z,0
2023-02-12T21:14:25.955Z,0
2023-02-12T21:15:29.000Z,0
2023-02-12T21:16:32.627Z,0
2023-02-12T21:18:41.603Z,0
2023-02-12T21:20:47.955Z,0
2023-02-12T21:22:55.160Z,0
2023-02-12T21:23:59.342Z,0
2023-02-12T21:26:08.295Z,0
2023-02-12T21:28:16.010Z,0
2023-02-12T21:30:22.639Z,0
2023-02-12T21:31:26.671Z,0
2023-02-12T21:33:34.008Z,0
2023-02-12T21:35:40.816Z,0
2023-02-12T21:37:47.594Z,0
2023-02-12T21:38:50.974Z,0
2023-02-12T21:40:57.092Z,0
2023-02-12T21:43:02.817Z,0
2023-02-12T21:44:06.249Z,0
2023-02-12T21:45:09.246Z,0
2023-02-12T21:46:13.455Z,0
2023-02-12T21:48:20.650Z,0
2023-02-12T21:49:24.326Z,0
2023-02-12T21:50:27.688Z,0
2023-02-12T21:51:30.485Z,0
2023-02-12T21:53:37.170Z,0
2023-02-12T21:55:43.230Z,0
2023-02-12T21:56:46.884Z,0
2023-02-12T21:58:53.104Z,0
2023-02-12T22:01:01.997Z,0
2023-02-12T22:03:09.106Z,0
2023-02-12T22:04:12.857Z,0
2023-02-12T22:06:19.827Z,0
2023-02-12T22:08:25.929Z,0
2023-02-12T22:10:32.917Z,0
2023-02-12T22:11:36.639Z,0
2023-02-12T22:13:43.114Z,0
2023-02-12T22:15:49.736Z,0
2023-02-12T22:17:56.194Z,0
2023-02-12T22:18:59.574Z,0
2023-02-12T22:21:10.220Z,0
2023-02-12T22:22:14.303Z,0
2023-02-12T22:23:17.597Z,0
2023-02-12T22:25:23.818Z,0
2023-02-12T22:26:27.257Z,0
2023-02-12T22:28:33.184Z,0
2023-02-12T22:30:39.961Z,0
2023-02-12T22:32:48.100Z,0
2023-02-12T22:33:51.843Z,0
2023-02-12T22:35:58.383Z,0
2023-02-12T22:38:05.532Z,0
2023-02-12T22:40:12.027Z,0
2023-02-12T22:41:14.738Z,0
2023-02-12T22:43:22.116Z,0
2023-02-12T22:45:29.004Z,0
2023-02-12T22:47:36.212Z,0
2023-02-12T22:48:39.216Z,0
2023-02-12T22:50:45.631Z,0
2023-02-12T22:52:52.214Z,0
2023-02-12T22:54:58.695Z,0
2023-02-12T22:56:02.036Z,0
2023-02-12T22:58:08.178Z,0
2023-02-12T23:00:14.582Z,0
2023-02-12T23:02:20.728Z,0
2023-02-12T23:03:24.139Z,0
2023-02-12T23:05:31.649Z,0
2023-02-12T23:07:38.827Z,0
2023-02-12T23:08:42.020Z,0
2023-02-12T23:09:45.342Z,0
2023-02-12T23:10:49.006Z,0
2023-02-12T23:12:55.172Z,0
2023-02-12T23:13:57.996Z,0
2023-02-12T23:15:01.124Z,0
2023-02-12T23:16:04.439Z,0
2023-02-12T23:18:10.423Z,0
2023-02-12T23:20:16.980Z,0
2023-02-12T23:21:20.340Z,0
2023-02-12T23:23:27.097Z,0
2023-02-12T23:25:34.376Z,0
2023-02-12T23:27:41.248Z,0
2023-02-12T23:28:44.878Z,0
2023-02-12T23:30:52.181Z,0
2023-02-12T23:32:59.404Z,0
2023-02-12T23:35:06.168Z,0
2023-02-12T23:36:08.664Z,0
2023-02-12T23:38:15.114Z,0
2023-02-12T23:40:21.578Z,0
2023-02-12T23:42:27.406Z,0
2023-02-12T23:43:31.120Z,0
2023-02-12T23:45:37.426Z,0
2023-02-12T23:47:43.924Z,0
2023-02-12T23:49:49.688Z,0
2023-02-12T23:50:52.515Z,0
2023-02-12T23:52:58.513Z,0
2023-02-12T23:55:05.624Z,0
2023-02-12T23:57:11.053Z,0
2023-02-12T23:58:14.915Z,0
